<?xml version="1.0" encoding="utf-8"?>
<gpx xmlns:xsi="http://www.w3.org/2001/XMLSchema-instance" xmlns:xsd="http://www.w3.org/2001/XMLSchema" version="1.1" creator="Shapelink.com" xmlns="http://www.topografix.com/GPX/1/1" xmlns:gpxtpx="http://www.garmin.com/xmlschemas/TrackPointExtension/v1">
  <metadata>
    <name>Övrigt 3.53 km, 2019-04-16</name>
    <desc></desc>
    <author><name>Marian Moron</name></author> 
    <time>2019-04-16T21:12:10Z</time>
  </metadata>
  <trk>
    <name>Övrigt 3.53 km, 2019-04-16</name>
    <trkseg>
      <trkpt lat="51.229932993841" lon="4.458145106897">
        <ele>0</ele>
        <time>2019-04-16T21:12:10Z</time>
      </trkpt>
      <trkpt lat="51.229960989387" lon="4.458292879794">
        <ele>4</ele>
        <time>2019-04-16T21:12:21Z</time>
      </trkpt>
      <trkpt lat="51.230018908316" lon="4.458764613126">
        <ele>0</ele>
        <time>2019-04-16T21:13:02Z</time>
      </trkpt>
      <trkpt lat="51.230199957356" lon="4.458738880693">
        <ele>0</ele>
        <time>2019-04-16T21:13:22Z</time>
      </trkpt>
      <trkpt lat="51.230637911631" lon="4.458610302347">
        <ele>6.8</ele>
        <time>2019-04-16T21:14:03Z</time>
      </trkpt>
      <trkpt lat="51.230648808101" lon="4.458608290691">
        <ele>7</ele>
        <time>2019-04-16T21:14:04Z</time>
      </trkpt>
      <trkpt lat="51.230943683343" lon="4.45852707008">
        <ele>7.4</ele>
        <time>2019-04-16T21:14:34Z</time>
      </trkpt>
      <trkpt lat="51.2312289194" lon="4.458319115141">
        <ele>0</ele>
        <time>2019-04-16T21:14:58Z</time>
      </trkpt>
      <trkpt lat="51.2314384669" lon="4.45826220204">
        <ele>0.8</ele>
        <time>2019-04-16T21:15:30Z</time>
      </trkpt>
      <trkpt lat="51.231474844346" lon="4.458239738548">
        <ele>0.8</ele>
        <time>2019-04-16T21:15:34Z</time>
      </trkpt>
      <trkpt lat="51.231911876612" lon="4.458020216587">
        <ele>2.2</ele>
        <time>2019-04-16T21:16:00Z</time>
      </trkpt>
      <trkpt lat="51.232369025438" lon="4.457823493394">
        <ele>7</ele>
        <time>2019-04-16T21:16:27Z</time>
      </trkpt>
      <trkpt lat="51.232521576018" lon="4.457669434072">
        <ele>9.4</ele>
        <time>2019-04-16T21:17:05Z</time>
      </trkpt>
      <trkpt lat="51.232574298169" lon="4.458310733241">
        <ele>1.4</ele>
        <time>2019-04-16T21:17:36Z</time>
      </trkpt>
      <trkpt lat="51.232618135506" lon="4.458623126654">
        <ele>0</ele>
        <time>2019-04-16T21:17:54Z</time>
      </trkpt>
      <trkpt lat="51.232624086655" lon="4.458822532055">
        <ele>0</ele>
        <time>2019-04-16T21:18:09Z</time>
      </trkpt>
      <trkpt lat="51.23265887154" lon="4.459065858612">
        <ele>0</ele>
        <time>2019-04-16T21:18:21Z</time>
      </trkpt>
      <trkpt lat="51.232673288408" lon="4.459137607676">
        <ele>0</ele>
        <time>2019-04-16T21:18:26Z</time>
      </trkpt>
      <trkpt lat="51.232715449365" lon="4.459328463539">
        <ele>0</ele>
        <time>2019-04-16T21:18:36Z</time>
      </trkpt>
      <trkpt lat="51.232792311388" lon="4.459530132053">
        <ele>0</ele>
        <time>2019-04-16T21:18:48Z</time>
      </trkpt>
      <trkpt lat="51.232816283622" lon="4.459611268845">
        <ele>0</ele>
        <time>2019-04-16T21:18:52Z</time>
      </trkpt>
      <trkpt lat="51.232879902243" lon="4.460089540059">
        <ele>0</ele>
        <time>2019-04-16T21:19:13Z</time>
      </trkpt>
      <trkpt lat="51.232791473198" lon="4.460153242499">
        <ele>0</ele>
        <time>2019-04-16T21:19:30Z</time>
      </trkpt>
      <trkpt lat="51.232723579808" lon="4.460182662968">
        <ele>0</ele>
        <time>2019-04-16T21:19:37Z</time>
      </trkpt>
      <trkpt lat="51.232666331431" lon="4.460185428995">
        <ele>1.4</ele>
        <time>2019-04-16T21:19:45Z</time>
      </trkpt>
      <trkpt lat="51.23231689002" lon="4.46031744392">
        <ele>9.6</ele>
        <time>2019-04-16T21:20:10Z</time>
      </trkpt>
      <trkpt lat="51.232243296938" lon="4.460370417528">
        <ele>11</ele>
        <time>2019-04-16T21:20:29Z</time>
      </trkpt>
      <trkpt lat="51.232151850409" lon="4.460471754699">
        <ele>13.2</ele>
        <time>2019-04-16T21:20:42Z</time>
      </trkpt>
      <trkpt lat="51.232024277891" lon="4.460708375736">
        <ele>4.4</ele>
        <time>2019-04-16T21:21:05Z</time>
      </trkpt>
      <trkpt lat="51.232080939535" lon="4.460911636811">
        <ele>0</ele>
        <time>2019-04-16T21:21:17Z</time>
      </trkpt>
      <trkpt lat="51.232184958914" lon="4.461603395018">
        <ele>0</ele>
        <time>2019-04-16T21:21:50Z</time>
      </trkpt>
      <trkpt lat="51.23222804188" lon="4.462104632638">
        <ele>0</ele>
        <time>2019-04-16T21:22:12Z</time>
      </trkpt>
      <trkpt lat="51.232265592792" lon="4.462205131619">
        <ele>0</ele>
        <time>2019-04-16T21:22:18Z</time>
      </trkpt>
      <trkpt lat="51.23233365382" lon="4.462522973267">
        <ele>0</ele>
        <time>2019-04-16T21:22:32Z</time>
      </trkpt>
      <trkpt lat="51.232313453441" lon="4.462535965212">
        <ele>0</ele>
        <time>2019-04-16T21:22:34Z</time>
      </trkpt>
      <trkpt lat="51.232212619184" lon="4.462502437612">
        <ele>0</ele>
        <time>2019-04-16T21:22:42Z</time>
      </trkpt>
      <trkpt lat="51.232191915891" lon="4.462531438986">
        <ele>0</ele>
        <time>2019-04-16T21:22:44Z</time>
      </trkpt>
      <trkpt lat="51.232073731101" lon="4.463220179709">
        <ele>0</ele>
        <time>2019-04-16T21:23:19Z</time>
      </trkpt>
      <trkpt lat="51.231932831362" lon="4.463568112378">
        <ele>0</ele>
        <time>2019-04-16T21:23:40Z</time>
      </trkpt>
      <trkpt lat="51.23183409258" lon="4.463577081011">
        <ele>0</ele>
        <time>2019-04-16T21:23:47Z</time>
      </trkpt>
      <trkpt lat="51.231726468984" lon="4.463536428796">
        <ele>0</ele>
        <time>2019-04-16T21:24:01Z</time>
      </trkpt>
      <trkpt lat="51.231526979764" lon="4.463358983973">
        <ele>0</ele>
        <time>2019-04-16T21:24:52Z</time>
      </trkpt>
      <trkpt lat="51.231128755695" lon="4.46321422856">
        <ele>0</ele>
        <time>2019-04-16T21:25:29Z</time>
      </trkpt>
      <trkpt lat="51.231042673582" lon="4.463310788048">
        <ele>0</ele>
        <time>2019-04-16T21:25:37Z</time>
      </trkpt>
      <trkpt lat="51.230687281022" lon="4.463402318396">
        <ele>1.2</ele>
        <time>2019-04-16T21:26:04Z</time>
      </trkpt>
      <trkpt lat="51.230417048566" lon="4.463469289777">
        <ele>9.2</ele>
        <time>2019-04-16T21:26:30Z</time>
      </trkpt>
      <trkpt lat="51.230421826249" lon="4.46355369551">
        <ele>4.4</ele>
        <time>2019-04-16T21:26:37Z</time>
      </trkpt>
      <trkpt lat="51.230155700924" lon="4.464068595627">
        <ele>0</ele>
        <time>2019-04-16T21:27:15Z</time>
      </trkpt>
      <trkpt lat="51.229949254727" lon="4.464267498114">
        <ele>0</ele>
        <time>2019-04-16T21:27:37Z</time>
      </trkpt>
      <trkpt lat="51.229491267711" lon="4.464327261061">
        <ele>0</ele>
        <time>2019-04-16T21:28:16Z</time>
      </trkpt>
      <trkpt lat="51.229219107418" lon="4.464371098398">
        <ele>4</ele>
        <time>2019-04-16T21:28:41Z</time>
      </trkpt>
      <trkpt lat="51.22912170974" lon="4.464318543885">
        <ele>5.6</ele>
        <time>2019-04-16T21:29:05Z</time>
      </trkpt>
      <trkpt lat="51.229078291498" lon="4.4641664124">
        <ele>0</ele>
        <time>2019-04-16T21:30:20Z</time>
      </trkpt>
      <trkpt lat="51.229033615971" lon="4.464361040118">
        <ele>0</ele>
        <time>2019-04-16T21:30:45Z</time>
      </trkpt>
      <trkpt lat="51.22887863464" lon="4.464386521094">
        <ele>0</ele>
        <time>2019-04-16T21:31:00Z</time>
      </trkpt>
      <trkpt lat="51.228718624169" lon="4.464492300672">
        <ele>0</ele>
        <time>2019-04-16T21:31:15Z</time>
      </trkpt>
      <trkpt lat="51.228588704719" lon="4.464413846088">
        <ele>0</ele>
        <time>2019-04-16T21:31:29Z</time>
      </trkpt>
      <trkpt lat="51.228597338076" lon="4.464161131803">
        <ele>0</ele>
        <time>2019-04-16T21:31:49Z</time>
      </trkpt>
      <trkpt lat="51.228482003132" lon="4.46349921316">
        <ele>0</ele>
        <time>2019-04-16T21:32:30Z</time>
      </trkpt>
      <trkpt lat="51.22845115774" lon="4.463466272293">
        <ele>0</ele>
        <time>2019-04-16T21:32:34Z</time>
      </trkpt>
      <trkpt lat="51.228168100977" lon="4.463264939055">
        <ele>0</ele>
        <time>2019-04-16T21:33:19Z</time>
      </trkpt>
      <trkpt lat="51.227760908275" lon="4.462965034673">
        <ele>1.8</ele>
        <time>2019-04-16T21:34:00Z</time>
      </trkpt>
      <trkpt lat="51.227753364565" lon="4.462954976393">
        <ele>2</ele>
        <time>2019-04-16T21:34:01Z</time>
      </trkpt>
      <trkpt lat="51.227738863878" lon="4.462933099634">
        <ele>1.6</ele>
        <time>2019-04-16T21:34:03Z</time>
      </trkpt>
      <trkpt lat="51.227627887522" lon="4.462648701767">
        <ele>0</ele>
        <time>2019-04-16T21:34:25Z</time>
      </trkpt>
      <trkpt lat="51.22757524919" lon="4.462402776821">
        <ele>0</ele>
        <time>2019-04-16T21:34:42Z</time>
      </trkpt>
      <trkpt lat="51.227521269754" lon="4.462188451638">
        <ele>0</ele>
        <time>2019-04-16T21:34:59Z</time>
      </trkpt>
      <trkpt lat="51.227433930356" lon="4.461697523755">
        <ele>0</ele>
        <time>2019-04-16T21:35:28Z</time>
      </trkpt>
      <trkpt lat="51.227431164329" lon="4.461631390564">
        <ele>0</ele>
        <time>2019-04-16T21:35:33Z</time>
      </trkpt>
      <trkpt lat="51.227324881837" lon="4.46164262231">
        <ele>0</ele>
        <time>2019-04-16T21:35:48Z</time>
      </trkpt>
      <trkpt lat="51.226888184847" lon="4.461715041926">
        <ele>0</ele>
        <time>2019-04-16T21:36:23Z</time>
      </trkpt>
      <trkpt lat="51.226858429102" lon="4.461695595918">
        <ele>0</ele>
        <time>2019-04-16T21:36:29Z</time>
      </trkpt>
      <trkpt lat="51.226842419673" lon="4.461640023921">
        <ele>0</ele>
        <time>2019-04-16T21:36:33Z</time>
      </trkpt>
      <trkpt lat="51.226761953433" lon="4.461435924656">
        <ele>1.4</ele>
        <time>2019-04-16T21:36:52Z</time>
      </trkpt>
      <trkpt lat="51.226641673168" lon="4.460746178105">
        <ele>0</ele>
        <time>2019-04-16T21:37:29Z</time>
      </trkpt>
      <trkpt lat="51.226500605791" lon="4.460137735984">
        <ele>0</ele>
        <time>2019-04-16T21:38:06Z</time>
      </trkpt>
      <trkpt lat="51.226380325526" lon="4.460024580334">
        <ele>0</ele>
        <time>2019-04-16T21:38:29Z</time>
      </trkpt>
      <trkpt lat="51.226254429388" lon="4.459855685049">
        <ele>0</ele>
        <time>2019-04-16T21:38:46Z</time>
      </trkpt>
      <trkpt lat="51.22613020963" lon="4.459844201846">
        <ele>0</ele>
        <time>2019-04-16T21:38:57Z</time>
      </trkpt>
      <trkpt lat="51.225728465163" lon="4.460087109308">
        <ele>0</ele>
        <time>2019-04-16T21:39:34Z</time>
      </trkpt>
      <trkpt lat="51.225516403093" lon="4.460242425915">
        <ele>0</ele>
        <time>2019-04-16T21:39:57Z</time>
      </trkpt>
      <trkpt lat="51.225086411623" lon="4.460512323095">
        <ele>0</ele>
        <time>2019-04-16T21:40:36Z</time>
      </trkpt>
      <trkpt lat="51.22466756808" lon="4.460780627714">
        <ele>0</ele>
        <time>2019-04-16T21:41:10Z</time>
      </trkpt>
      <trkpt lat="51.224274959884" lon="4.461120178483">
        <ele>0</ele>
        <time>2019-04-16T21:42:03Z</time>
      </trkpt>
      <trkpt lat="51.224053342448" lon="4.461296366021">
        <ele>0</ele>
        <time>2019-04-16T21:42:29Z</time>
      </trkpt>
      <trkpt lat="51.224008834559" lon="4.461326540861">
        <ele>0</ele>
        <time>2019-04-16T21:42:33Z</time>
      </trkpt>
      <trkpt lat="51.223868186277" lon="4.461418741761">
        <ele>0</ele>
        <time>2019-04-16T21:42:46Z</time>
      </trkpt>
      <trkpt lat="51.223703733399" lon="4.46152024657">
        <ele>0</ele>
        <time>2019-04-16T21:43:00Z</time>
      </trkpt>
      <trkpt lat="51.223569790637" lon="4.461640526835">
        <ele>0</ele>
        <time>2019-04-16T21:43:14Z</time>
      </trkpt>
      <trkpt lat="51.223461328851" lon="4.461761561471">
        <ele>0</ele>
        <time>2019-04-16T21:43:30Z</time>
      </trkpt>
      <trkpt lat="51.223273909567" lon="4.46182199497">
        <ele>0</ele>
        <time>2019-04-16T21:43:52Z</time>
      </trkpt>
      <trkpt lat="51.222966796751" lon="4.462017963792">
        <ele>1.8</ele>
        <time>2019-04-16T21:44:28Z</time>
      </trkpt>
      <trkpt lat="51.222602603196" lon="4.462302529297">
        <ele>0.4</ele>
        <time>2019-04-16T21:45:11Z</time>
      </trkpt>
      <trkpt lat="51.222190381354" lon="4.462619281298">
        <ele>0.2</ele>
        <time>2019-04-16T21:45:50Z</time>
      </trkpt>
      <trkpt lat="51.221851165861" lon="4.462331363033">
        <ele>0.2</ele>
        <time>2019-04-16T21:46:35Z</time>
      </trkpt>
      <trkpt lat="51.221494767473" lon="4.461975635197">
        <ele>14.6</ele>
        <time>2019-04-16T21:47:11Z</time>
      </trkpt>
      <trkpt lat="51.2214388602" lon="4.461948645479">
        <ele>12</ele>
        <time>2019-04-16T21:47:59Z</time>
      </trkpt>
      <trkpt lat="51.221456965104" lon="4.461949567488">
        <ele>11.8</ele>
        <time>2019-04-16T21:48:02Z</time>
      </trkpt>
      <trkpt lat="51.221494599835" lon="4.461826605015">
        <ele>4.6</ele>
        <time>2019-04-16T21:48:19Z</time>
      </trkpt>
      <trkpt lat="51.221765921938" lon="4.46132662468">
        <ele>14.6</ele>
        <time>2019-04-16T21:48:54Z</time>
      </trkpt>
      <trkpt lat="51.221842281047" lon="4.46129058251">
        <ele>16.8</ele>
        <time>2019-04-16T21:49:04Z</time>
      </trkpt>
      <trkpt lat="51.222156602297" lon="4.46101900895">
        <ele>1.8</ele>
        <time>2019-04-16T21:49:44Z</time>
      </trkpt>
      <trkpt lat="51.2223021959" lon="4.4609477628">
        <ele>3.4</ele>
        <time>2019-04-16T21:50:08Z</time>
      </trkpt>
      <trkpt lat="51.22251425797" lon="4.461585457752">
        <ele>0</ele>
        <time>2019-04-16T21:50:47Z</time>
      </trkpt>
      <trkpt lat="51.222743251478" lon="4.462154421124">
        <ele>1.8</ele>
        <time>2019-04-16T21:51:37Z</time>
      </trkpt>
      <trkpt lat="51.222756746337" lon="4.46215140364">
        <ele>1.8</ele>
        <time>2019-04-16T21:51:38Z</time>
      </trkpt>
      <trkpt lat="51.222918517007" lon="4.462088455571">
        <ele>7</ele>
        <time>2019-04-16T21:51:58Z</time>
      </trkpt>
      <trkpt lat="51.223331744677" lon="4.461803722428">
        <ele>11</ele>
        <time>2019-04-16T21:52:41Z</time>
      </trkpt>
      <trkpt lat="51.223376671661" lon="4.461770194828">
        <ele>12</ele>
        <time>2019-04-16T21:52:46Z</time>
      </trkpt>
      <trkpt lat="51.223786965666" lon="4.461471380093">
        <ele>2.2</ele>
        <time>2019-04-16T21:53:51Z</time>
      </trkpt>
      <trkpt lat="51.224045295824" lon="4.461300724609">
        <ele>4</ele>
        <time>2019-04-16T21:54:24Z</time>
      </trkpt>
      <trkpt lat="51.224337488858" lon="4.46111037166">
        <ele>5.8</ele>
        <time>2019-04-16T21:55:07Z</time>
      </trkpt>
      <trkpt lat="51.224581402148" lon="4.460846593267">
        <ele>3.4</ele>
        <time>2019-04-16T21:55:49Z</time>
      </trkpt>
      <trkpt lat="51.225014746378" lon="4.460604607814">
        <ele>0</ele>
        <time>2019-04-16T21:56:35Z</time>
      </trkpt>
      <trkpt lat="51.225140977792" lon="4.460533026388">
        <ele>0.2</ele>
        <time>2019-04-16T21:56:49Z</time>
      </trkpt>
      <trkpt lat="51.225526545192" lon="4.460163719874">
        <ele>0</ele>
        <time>2019-04-16T21:57:34Z</time>
      </trkpt>
      <trkpt lat="51.225960979069" lon="4.45995534584">
        <ele>1.8</ele>
        <time>2019-04-16T21:58:11Z</time>
      </trkpt>
      <trkpt lat="51.226168431094" lon="4.459644964083">
        <ele>3.6</ele>
        <time>2019-04-16T21:58:36Z</time>
      </trkpt>
      <trkpt lat="51.226586771723" lon="4.459409432693">
        <ele>0.6</ele>
        <time>2019-04-16T21:59:14Z</time>
      </trkpt>
      <trkpt lat="51.22699941266" lon="4.45912721412">
        <ele>2</ele>
        <time>2019-04-16T21:59:52Z</time>
      </trkpt>
      <trkpt lat="51.22715615419" lon="4.459014812841">
        <ele>0</ele>
        <time>2019-04-16T22:00:11Z</time>
      </trkpt>
      <trkpt lat="51.227597461225" lon="4.458838373846">
        <ele>0.2</ele>
        <time>2019-04-16T22:00:53Z</time>
      </trkpt>
      <trkpt lat="51.228036588966" lon="4.458609464157">
        <ele>3.2</ele>
        <time>2019-04-16T22:01:37Z</time>
      </trkpt>
      <trkpt lat="51.228460461649" lon="4.458337220045">
        <ele>3</ele>
        <time>2019-04-16T22:02:21Z</time>
      </trkpt>
      <trkpt lat="51.228754079606" lon="4.458186094388">
        <ele>3.4</ele>
        <time>2019-04-16T22:02:57Z</time>
      </trkpt>
      <trkpt lat="51.229200667238" lon="4.458092636203">
        <ele>2.2</ele>
        <time>2019-04-16T22:03:42Z</time>
      </trkpt>
      <trkpt lat="51.229640046436" lon="4.45792357328">
        <ele>0</ele>
        <time>2019-04-16T22:04:36Z</time>
      </trkpt>
      <trkpt lat="51.229677932624" lon="4.457920304339">
        <ele>0</ele>
        <time>2019-04-16T22:04:50Z</time>
      </trkpt>
    </trkseg>
  </trk>
</gpx>